Artari, Romania

10:10 AM EEST on April 23, 2017 (GMT +0300)
Univ. Stefan cel Mare | | Change Station

Elev 1164 ft 47.64 °N, 26.24 °E | Updated 26 seconds ago

Rain
Rain
38.5 °F
Feels Like 36 °F
N
4.0
Wind Variable Wind from NNW
Gusts 10.3 mph

Today
High -- | Low -- °F
--% Chance of Precip.
Yesterday
High -- | Low -- °F
Precip. -- in
Pressure 29.89 in
Visibility 6.2 miles
Clouds Scattered Clouds 3300 ft
Mostly Cloudy 10000 ft
Windchill 36 °F
Dew Point 30 °F
Humidity 71%
Rainfall 0.00 in
Snow Depth Not available.
6:10 AM 8:15 PM
Waning Crescent, 14% visible
METAR UKLN 230700Z 30005MPS 9999 SCT033CB BKN100 06/01 Q1012 R33/290260 NOSIG
Pressure 29.89 in
Visibility 6.2 miles
Clouds Scattered Clouds 3300 ft
Mostly Cloudy 10000 ft
Windchill 36 °F
Dew Point 30 °F
Humidity 71%
Rainfall 0.00 in
Snow Depth Not available.
6:10 AM 8:15 PM
Waning Crescent, 14% visible
METAR UKLN 230700Z 30005MPS 9999 SCT033CB BKN100 06/01 Q1012 R33/290260 NOSIG

Get Severe Weather Alerts

Thanks for signing up!

Be on the lookout for a verification email in your inbox.

You'll start receiving the daily forecast at 8 AM.

×

10-Day Weather Forecast

×

Almanac

Astronomy

Apr. 23, 2017 Rise Set
Actual Time
Civil Twilight
Nautical Twilight
Astronomical Twilight
Moon
Length of Visible Light
Length of Day
Tomorrow will be .
, % of the Moon is Illuminated

Today's Extremes

Country Highs Country Lows

Community

WunderPhotos

WunderBlog® & News

Nearby

Air Quality

  Air Quality AQ Index Pollutant
Not available.

Snow Depth

Station Depth Elevation

Earthquake Activity

City Distance Mag. Time & Date
Minimum magnitude displayed is 2.5.

Coastal Water Temperatures

Place Temperature

Stations

Nearby Weather Stations

Station Location Temp. Windchill Dew Point Humidity Wind Precip. Elev Updated Type